Halltown, Missouri
Current Conditions -  °F | °C
As of 11:52 AM on Tuesday 21 Oct 2014 (Local Time) from KSGF Reporting Station
Clear Clear  
Wind Chill: 70°   Ceiling: Unl
Heat Index: 70°   Visibility: 10mi
Dew Point: 43°   Wind: 0mph
Humidity: 38%   Direction: NA
Pressure: 30.14"   Gusts: NA
Location:  37.19°N, 93.63°W
Report Text: KSGF 211652Z 00000KT 10SM CLR 21/06 A3014 RMK AO2 SLP200 T02110061
Loading
Personal Weather Stations






























Interactive Weather Map
Tropical Storm Tracking
New forecast layout! Learn more

10-Day Weather Forecast

Advertisements
Track Severe Weather on mobile